createdAt,value
2019-03-04T00:01:59.532Z,12.70
2019-03-04T00:04:27.943Z,12.70
2019-03-04T00:06:56.629Z,12.70
2019-03-04T00:09:25.107Z,12.80
2019-03-04T00:11:53.514Z,12.80
2019-03-04T00:14:21.936Z,12.80
2019-03-04T00:16:50.427Z,12.80
2019-03-04T00:19:18.858Z,12.80
2019-03-04T00:21:47.542Z,12.80
2019-03-04T00:24:16.709Z,12.80
2019-03-04T00:26:45.143Z,12.90
2019-03-04T00:29:13.788Z,12.90
2019-03-04T00:31:42.248Z,12.90
2019-03-04T00:34:10.689Z,12.90
2019-03-04T00:36:39.416Z,13.00
2019-03-04T00:39:10.536Z,13.00
2019-03-04T00:41:38.960Z,13.00
2019-03-04T00:44:07.416Z,13.00
2019-03-04T00:46:35.890Z,13.00
2019-03-04T00:49:04.609Z,13.00
2019-03-04T00:51:33.639Z,13.00
2019-03-04T00:54:02.360Z,13.00
2019-03-04T00:56:30.758Z,12.90
2019-03-04T00:58:59.422Z,12.90
2019-03-04T01:01:28.282Z,12.80
2019-03-04T01:03:56.714Z,12.80
2019-03-04T01:06:25.119Z,12.80
2019-03-04T01:08:53.863Z,12.70
2019-03-04T01:11:22.822Z,12.70
2019-03-04T01:13:51.510Z,12.70
2019-03-04T01:16:20.242Z,12.70
2019-03-04T01:18:48.665Z,12.70
2019-03-04T01:21:17.100Z,12.60
2019-03-04T01:23:45.955Z,12.60
2019-03-04T01:26:14.387Z,12.50
2019-03-04T01:28:43.179Z,12.50
2019-03-04T01:31:11.681Z,12.50
2019-03-04T01:33:40.092Z,12.50
2019-03-04T01:36:08.800Z,12.50
2019-03-04T01:38:37.301Z,12.50
2019-03-04T01:41:05.965Z,12.60
2019-03-04T01:43:34.622Z,12.60
2019-03-04T01:46:03.107Z,12.60
2019-03-04T01:48:32.057Z,12.60
2019-03-04T01:51:00.507Z,12.70
2019-03-04T01:53:28.984Z,12.70
2019-03-04T01:55:57.455Z,12.70
2019-03-04T01:58:25.841Z,12.70
2019-03-04T02:00:54.332Z,12.80
2019-03-04T02:03:23.046Z,12.80
2019-03-04T02:05:51.537Z,12.90
2019-03-04T02:08:20.416Z,12.90
2019-03-04T02:10:48.837Z,12.90
2019-03-04T02:13:17.269Z,12.90
2019-03-04T02:15:45.997Z,12.90
2019-03-04T02:18:14.664Z,12.90
2019-03-04T02:20:43.127Z,12.80
2019-03-04T02:23:11.910Z,12.80
2019-03-04T02:25:49.101Z,12.80
2019-03-04T02:28:17.802Z,12.80
2019-03-04T02:30:46.259Z,12.80
2019-03-04T02:33:15.024Z,12.80
2019-03-04T02:35:43.745Z,12.80
2019-03-04T02:38:12.173Z,12.80
2019-03-04T02:40:40.606Z,12.70
2019-03-04T02:43:09.388Z,12.70
2019-03-04T02:45:37.814Z,12.70
2019-03-04T02:48:06.245Z,12.70
2019-03-04T02:50:34.759Z,12.70
2019-03-04T02:53:03.236Z,12.70
2019-03-04T02:55:31.982Z,12.70
2019-03-04T02:58:00.517Z,12.70
2019-03-04T03:00:28.918Z,12.80
2019-03-04T03:02:57.525Z,12.80
2019-03-04T03:05:26.249Z,12.70
2019-03-04T03:07:54.673Z,12.70
2019-03-04T03:10:23.099Z,12.80
2019-03-04T03:12:52.089Z,12.70
2019-03-04T03:15:21.972Z,12.70
2019-03-04T03:17:50.403Z,12.70
2019-03-04T03:20:18.890Z,12.60
2019-03-04T03:22:47.533Z,12.60
2019-03-04T03:25:16.360Z,12.60
2019-03-04T03:27:45.234Z,12.60
2019-03-04T03:30:16.156Z,12.60
2019-03-04T03:32:45.064Z,12.60
2019-03-04T03:35:13.643Z,12.50
2019-03-04T03:37:42.204Z,12.60
2019-03-04T03:40:15.795Z,12.60
2019-03-04T03:42:44.426Z,12.60
2019-03-04T03:45:13.089Z,12.60
2019-03-04T03:47:41.575Z,12.60
2019-03-04T03:50:13.108Z,12.50
2019-03-04T03:52:41.555Z,12.50
2019-03-04T03:55:14.470Z,12.50
2019-03-04T03:57:43.784Z,12.40
2019-03-04T04:00:20.484Z,12.40
2019-03-04T04:02:49.026Z,12.40
2019-03-04T04:05:17.565Z,12.40
2019-03-04T04:07:46.483Z,12.30
2019-03-04T04:10:17.458Z,12.40
2019-03-04T04:12:46.146Z,12.40
2019-03-04T04:15:20.307Z,12.40
2019-03-04T04:17:48.883Z,12.40
2019-03-04T04:20:17.363Z,12.50
2019-03-04T04:22:45.878Z,12.50
2019-03-04T04:25:15.080Z,12.50
2019-03-04T04:27:43.633Z,12.50
2019-03-04T04:30:30.162Z,12.50
2019-03-04T04:32:58.912Z,12.40
2019-03-04T04:35:27.638Z,12.50
2019-03-04T04:37:56.077Z,12.50
2019-03-04T04:40:24.721Z,12.50
2019-03-04T04:42:53.111Z,12.50
2019-03-04T04:45:21.608Z,12.40
2019-03-04T04:47:50.031Z,12.40
2019-03-04T04:50:24.724Z,12.40
2019-03-04T04:52:53.568Z,12.40
2019-03-04T04:55:22.217Z,12.40
2019-03-04T04:57:50.877Z,12.40
2019-03-04T05:00:20.953Z,12.40
2019-03-04T05:02:49.896Z,12.40
2019-03-04T05:05:18.625Z,12.40
2019-03-04T05:07:47.104Z,12.50
2019-03-04T05:10:20.300Z,12.50
2019-03-04T05:12:48.812Z,12.50
2019-03-04T05:15:18.329Z,12.50
2019-03-04T05:17:47.001Z,12.50
2019-03-04T05:20:24.626Z,12.40
2019-03-04T05:22:53.196Z,12.50
2019-03-04T05:25:21.707Z,12.50
2019-03-04T05:27:50.463Z,12.50
2019-03-04T05:30:22.746Z,12.60
2019-03-04T05:32:51.412Z,12.60
2019-03-04T05:35:20.538Z,12.60
2019-03-04T05:37:49.223Z,12.50
2019-03-04T05:40:20.705Z,12.50
2019-03-04T05:42:49.149Z,12.40
2019-03-04T05:45:18.913Z,12.40
2019-03-04T05:47:47.574Z,12.40
2019-03-04T05:50:23.457Z,12.30
2019-03-04T05:52:51.854Z,12.20
2019-03-04T05:55:20.651Z,12.10
2019-03-04T05:57:49.371Z,12.10
2019-03-04T06:00:20.489Z,12.10
2019-03-04T06:02:50.148Z,12.10
2019-03-04T06:05:18.599Z,12.20
2019-03-04T06:07:48.665Z,12.20
2019-03-04T06:10:17.429Z,12.20
2019-03-04T06:12:45.891Z,12.20
2019-03-04T06:15:18.857Z,12.20
2019-03-04T06:17:47.288Z,12.10
2019-03-04T06:20:18.072Z,12.10
2019-03-04T06:22:46.743Z,12.00
2019-03-04T06:25:17.752Z,12.00
2019-03-04T06:27:46.271Z,12.10
2019-03-04T06:30:17.846Z,12.00
2019-03-04T06:32:46.490Z,12.10
2019-03-04T06:35:15.446Z,12.00
2019-03-04T06:37:43.872Z,11.90
2019-03-04T06:40:17.215Z,11.90
2019-03-04T06:42:47.660Z,11.80
2019-03-04T06:45:20.412Z,11.70
2019-03-04T06:47:49.481Z,11.70
2019-03-04T06:50:37.522Z,11.60
2019-03-04T06:53:05.958Z,11.60
2019-03-04T06:55:58.602Z,11.60
2019-03-04T06:58:27.014Z,11.70
2019-03-04T07:00:58.056Z,11.60
2019-03-04T07:03:26.515Z,11.60
2019-03-04T07:05:55.179Z,11.70
2019-03-04T07:08:35.517Z,11.60
2019-03-04T07:11:04.391Z,11.70
2019-03-04T07:13:33.106Z,11.80
2019-03-04T07:16:01.873Z,11.80
2019-03-04T07:18:30.562Z,11.80
2019-03-04T07:20:58.964Z,11.80
2019-03-04T07:23:27.979Z,11.90
2019-03-04T07:25:56.680Z,11.90
2019-03-04T07:28:25.166Z,11.90
2019-03-04T07:30:54.382Z,12.00
2019-03-04T07:33:23.225Z,12.00
2019-03-04T07:35:51.695Z,12.10
2019-03-04T07:38:23.501Z,12.10
2019-03-04T07:40:52.111Z,12.20
2019-03-04T07:43:20.547Z,12.30
2019-03-04T07:45:50.127Z,12.30
2019-03-04T07:48:18.797Z,12.30
2019-03-04T07:50:47.531Z,12.40
2019-03-04T07:53:16.068Z,12.40
2019-03-04T07:55:44.494Z,12.40
2019-03-04T07:58:13.130Z,12.50
2019-03-04T08:00:41.682Z,12.50
2019-03-04T08:03:10.155Z,12.60
2019-03-04T08:05:38.586Z,12.60
2019-03-04T08:08:12.284Z,12.70
2019-03-04T08:10:49.735Z,12.70
2019-03-04T08:13:24.072Z,12.80
2019-03-04T08:15:52.952Z,12.90
2019-03-04T08:18:21.389Z,12.90
2019-03-04T08:20:50.100Z,13.00
2019-03-04T08:23:18.754Z,13.00
2019-03-04T08:25:48.975Z,13.10
2019-03-04T08:28:17.877Z,13.20
2019-03-04T08:30:46.274Z,13.20
2019-03-04T08:33:14.979Z,13.10
2019-03-04T08:35:43.440Z,12.90
2019-03-04T08:38:11.887Z,12.50
2019-03-04T08:40:40.721Z,12.10
2019-03-04T08:43:09.420Z,11.70
2019-03-04T08:45:38.226Z,11.50
2019-03-04T08:48:06.643Z,11.30
2019-03-04T08:50:35.350Z,11.30
2019-03-04T08:53:03.764Z,11.20
2019-03-04T08:55:32.224Z,11.20
2019-03-04T08:58:01.818Z,11.20
2019-03-04T09:00:31.095Z,11.20
2019-03-04T09:02:59.527Z,11.20
2019-03-04T09:05:28.281Z,11.30
2019-03-04T09:07:56.994Z,11.30
2019-03-04T09:10:30.670Z,11.30
2019-03-04T09:12:59.156Z,11.40
2019-03-04T09:15:28.129Z,11.50
2019-03-04T09:17:56.629Z,11.60
2019-03-04T09:20:25.137Z,11.70
2019-03-04T09:22:54.086Z,11.60
2019-03-04T09:25:30.722Z,11.40
2019-03-04T09:27:58.824Z,11.30
2019-03-04T09:30:27.336Z,11.30
2019-03-04T09:32:55.833Z,11.20
2019-03-04T09:35:24.694Z,11.20
2019-03-04T09:37:53.462Z,11.30
2019-03-04T09:40:27.837Z,11.40
2019-03-04T09:42:56.359Z,11.50
2019-03-04T09:45:24.913Z,11.70
2019-03-04T09:47:53.624Z,11.80
2019-03-04T09:50:27.198Z,11.90
2019-03-04T09:52:55.672Z,11.90
2019-03-04T09:55:24.310Z,12.00
2019-03-04T09:57:53.038Z,12.10
2019-03-04T10:00:29.921Z,12.40
2019-03-04T10:03:04.306Z,12.70
2019-03-04T10:05:56.850Z,12.80
2019-03-04T10:08:44.905Z,12.90
2019-03-04T10:11:35.516Z,12.90
2019-03-04T10:14:26.609Z,12.90
2019-03-04T10:17:30.970Z,12.90
2019-03-04T10:20:09.851Z,12.80
2019-03-04T10:22:57.357Z,12.80
2019-03-04T10:25:40.919Z,12.90
2019-03-04T10:28:31.481Z,12.90
2019-03-04T10:31:09.212Z,12.80
2019-03-04T10:34:04.544Z,12.80
2019-03-04T10:36:42.338Z,12.70
2019-03-04T10:39:28.976Z,12.70
2019-03-04T10:42:33.410Z,12.60
2019-03-04T10:45:21.501Z,12.40
2019-03-04T10:47:50.184Z,12.20
2019-03-04T10:50:18.834Z,12.00
2019-03-04T10:52:47.535Z,11.70
2019-03-04T10:55:18.614Z,11.50
2019-03-04T10:57:47.102Z,11.30
2019-03-04T11:00:17.946Z,11.10
2019-03-04T11:02:46.501Z,11.00
2019-03-04T11:05:15.075Z,10.90
2019-03-04T11:07:43.834Z,10.90
2019-03-04T11:10:13.887Z,11.10
2019-03-04T11:12:42.400Z,11.20
2019-03-04T11:15:25.188Z,11.40
2019-03-04T11:17:54.613Z,11.50
2019-03-04T11:20:23.436Z,11.50
2019-03-04T11:22:52.179Z,11.60
2019-03-04T11:25:20.741Z,11.80
2019-03-04T11:27:49.607Z,11.90
2019-03-04T11:30:21.860Z,12.10
2019-03-04T11:32:50.473Z,12.10
2019-03-04T11:35:18.985Z,12.10
2019-03-04T11:37:47.492Z,12.20
2019-03-04T11:40:32.943Z,12.20
2019-03-04T11:43:01.779Z,12.20
2019-03-04T11:45:30.359Z,12.20
2019-03-04T11:47:58.908Z,12.20
2019-03-04T11:50:27.677Z,12.20
2019-03-04T11:52:56.176Z,12.30
2019-03-04T11:55:32.654Z,12.40
2019-03-04T11:58:01.153Z,12.70
2019-03-04T12:00:40.386Z,12.90
2019-03-04T12:03:09.624Z,13.00
2019-03-04T12:05:38.472Z,13.10
2019-03-04T12:08:07.014Z,13.10
2019-03-04T12:10:35.568Z,13.10
2019-03-04T12:13:04.206Z,13.20
2019-03-04T12:15:32.967Z,13.20
2019-03-04T12:18:02.305Z,13.20
2019-03-04T12:20:31.077Z,13.30
2019-03-04T12:22:59.545Z,13.30
2019-03-04T12:25:27.947Z,13.30
2019-03-04T12:27:56.741Z,13.20
2019-03-04T12:30:26.569Z,13.10
2019-03-04T12:32:55.210Z,13.10
2019-03-04T12:35:23.884Z,13.00
2019-03-04T12:37:52.425Z,12.90
2019-03-04T12:40:23.212Z,12.80
2019-03-04T12:42:52.066Z,12.50
2019-03-04T12:45:34.090Z,12.30
2019-03-04T12:47:55.165Z,12.10
2019-03-04T12:50:31.516Z,12.00
2019-03-04T12:53:00.174Z,11.80
2019-03-04T12:55:28.702Z,11.70
2019-03-04T12:57:57.220Z,11.50
2019-03-04T13:00:30.654Z,11.20
2019-03-04T13:02:59.548Z,10.80
2019-03-04T13:05:28.460Z,10.50
2019-03-04T13:07:57.050Z,10.20
2019-03-04T13:10:25.857Z,10.20
2019-03-04T13:12:54.406Z,10.10
2019-03-04T13:15:25.292Z,10.00
2019-03-04T13:17:53.770Z,10.00
2019-03-04T13:20:29.842Z,9.90
2019-03-04T13:22:59.175Z,9.90
2019-03-04T13:25:27.968Z,10.00
2019-03-04T13:27:56.561Z,10.20
2019-03-04T13:30:30.486Z,10.30
2019-03-04T13:32:59.510Z,10.40
2019-03-04T13:35:36.226Z,10.40
2019-03-04T13:38:05.384Z,10.50
2019-03-04T13:40:33.803Z,10.50
2019-03-04T13:43:02.454Z,10.40
2019-03-04T13:45:31.169Z,10.30
2019-03-04T13:47:59.708Z,10.20
2019-03-04T13:50:32.143Z,10.10
2019-03-04T13:53:00.653Z,10.10
2019-03-04T13:55:29.146Z,9.90
2019-03-04T13:57:57.752Z,9.90
2019-03-04T14:00:34.775Z,9.80
2019-03-04T14:03:03.273Z,9.80
2019-03-04T14:05:31.984Z,9.80
2019-03-04T14:08:00.399Z,9.80
2019-03-04T14:10:34.321Z,9.70
2019-03-04T14:13:02.960Z,9.70
2019-03-04T14:15:46.393Z,9.70
2019-03-04T14:18:15.101Z,9.60
2019-03-04T14:20:43.583Z,9.70
2019-03-04T14:23:12.326Z,9.70
2019-03-04T14:25:40.944Z,9.70
2019-03-04T14:28:09.817Z,9.80
2019-03-04T14:30:38.390Z,9.80
2019-03-04T14:33:06.879Z,9.80
2019-03-04T14:35:35.691Z,9.80
2019-03-04T14:38:04.733Z,9.80
2019-03-04T14:40:34.888Z,9.70
2019-03-04T14:43:03.358Z,9.70
2019-03-04T14:45:32.087Z,9.60
2019-03-04T14:48:00.508Z,9.50
2019-03-04T14:50:29.300Z,9.40
2019-03-04T14:52:58.103Z,9.30
2019-03-04T14:55:29.384Z,9.10
2019-03-04T14:57:57.839Z,9.00
2019-03-04T15:00:42.056Z,8.90
2019-03-04T15:03:20.571Z,8.80
2019-03-04T15:05:41.057Z,8.80
2019-03-04T15:08:09.521Z,8.80
2019-03-04T15:10:38.216Z,8.90
2019-03-04T15:13:06.781Z,8.80
2019-03-04T15:15:35.574Z,8.90
2019-03-04T15:18:04.070Z,8.80
2019-03-04T15:20:33.770Z,8.80
2019-03-04T15:23:02.387Z,8.70
2019-03-04T15:25:44.100Z,8.70
2019-03-04T15:28:18.070Z,8.60
2019-03-04T15:30:49.696Z,8.60
2019-03-04T15:33:18.927Z,8.60
2019-03-04T15:35:47.644Z,8.50
2019-03-04T15:38:16.100Z,8.50
2019-03-04T15:40:44.941Z,8.40
2019-03-04T15:43:13.798Z,8.50
2019-03-04T15:45:49.711Z,8.50
2019-03-04T15:48:20.403Z,8.50
2019-03-04T15:50:48.835Z,8.60
2019-03-04T15:53:17.723Z,8.60
2019-03-04T15:55:46.171Z,8.60
2019-03-04T15:58:14.585Z,8.60
2019-03-04T16:00:43.135Z,8.50
2019-03-04T16:03:11.617Z,8.40
2019-03-04T16:05:40.263Z,8.40
2019-03-04T16:08:08.729Z,8.40
2019-03-04T16:10:38.295Z,8.30
2019-03-04T16:13:08.052Z,8.30
2019-03-04T16:15:39.331Z,8.30
2019-03-04T16:18:08.021Z,8.30
2019-03-04T16:20:36.517Z,8.20
2019-03-04T16:23:05.357Z,8.20
2019-03-04T16:25:34.749Z,8.20
2019-03-04T16:28:09.850Z,8.20
2019-03-04T16:30:38.990Z,8.10
2019-03-04T16:33:07.907Z,8.20
2019-03-04T16:35:36.377Z,8.10
2019-03-04T16:38:05.229Z,8.20
2019-03-04T16:40:33.712Z,8.20
2019-03-04T16:43:02.232Z,8.10
2019-03-04T16:45:31.794Z,8.10
2019-03-04T16:48:00.642Z,8.10
2019-03-04T16:50:37.198Z,8.20
2019-03-04T16:53:08.833Z,8.20
2019-03-04T16:55:37.248Z,8.20
2019-03-04T16:58:06.109Z,8.20
2019-03-04T17:00:34.895Z,8.20
2019-03-04T17:03:03.355Z,8.20
2019-03-04T17:05:32.158Z,8.20
2019-03-04T17:08:00.867Z,8.10
2019-03-04T17:10:29.501Z,8.10
2019-03-04T17:12:58.604Z,8.10
2019-03-04T17:15:27.240Z,8.00
2019-03-04T17:17:55.776Z,8.00
2019-03-04T17:20:24.344Z,7.90
2019-03-04T17:22:52.813Z,7.90
2019-03-04T17:25:22.461Z,7.90
2019-03-04T17:27:51.785Z,7.90
2019-03-04T17:30:25.009Z,7.80
2019-03-04T17:32:53.800Z,7.80
2019-03-04T17:35:23.178Z,7.80
2019-03-04T17:37:51.996Z,7.80
2019-03-04T17:40:26.077Z,7.90
2019-03-04T17:42:54.722Z,7.90
2019-03-04T17:45:24.782Z,7.90
2019-03-04T17:47:53.573Z,7.90
2019-03-04T17:50:30.815Z,8.00
2019-03-04T17:52:59.482Z,8.00
2019-03-04T17:55:28.013Z,8.00
2019-03-04T17:57:56.506Z,8.00
2019-03-04T18:00:25.483Z,8.10
2019-03-04T18:02:53.991Z,8.10
2019-03-04T18:05:22.813Z,8.10
2019-03-04T18:07:51.474Z,8.00
2019-03-04T18:10:20.023Z,8.10
2019-03-04T18:12:48.725Z,8.10
2019-03-04T18:15:25.253Z,8.10
2019-03-04T18:17:53.750Z,8.00
2019-03-04T18:20:22.170Z,8.10
2019-03-04T18:22:50.595Z,8.10
2019-03-04T18:25:40.326Z,8.10
2019-03-04T18:28:11.895Z,8.10
2019-03-04T18:30:43.528Z,8.10
2019-03-04T18:33:24.453Z,8.10
2019-03-04T18:36:24.470Z,8.10
2019-03-04T18:39:07.952Z,8.10
2019-03-04T18:42:05.013Z,8.00
2019-03-04T18:44:55.766Z,8.00
2019-03-04T18:47:48.097Z,7.90
2019-03-04T18:50:16.631Z,7.90
2019-03-04T18:52:45.185Z,7.80
2019-03-04T18:55:13.811Z,7.80
2019-03-04T18:57:42.291Z,7.80
2019-03-04T19:00:26.048Z,7.70
2019-03-04T19:02:54.571Z,7.70
2019-03-04T19:05:23.870Z,7.60
2019-03-04T19:07:52.837Z,7.60
2019-03-04T19:10:21.464Z,7.60
2019-03-04T19:12:50.089Z,7.60
2019-03-04T19:15:19.077Z,7.60
2019-03-04T19:17:47.690Z,7.60
2019-03-04T19:20:17.800Z,7.70
2019-03-04T19:22:46.696Z,7.70
2019-03-04T19:25:15.474Z,7.80
2019-03-04T19:27:44.360Z,7.80
2019-03-04T19:30:14.429Z,7.70
2019-03-04T19:32:43.207Z,7.80
2019-03-04T19:35:16.296Z,7.70
2019-03-04T19:37:45.272Z,7.70
2019-03-04T19:40:17.510Z,7.70
2019-03-04T19:42:46.263Z,7.60
2019-03-04T19:45:20.709Z,7.50
2019-03-04T19:47:49.345Z,7.50
2019-03-04T19:50:18.183Z,7.50
2019-03-04T19:52:46.916Z,7.40
2019-03-04T19:55:17.032Z,7.40
2019-03-04T19:57:46.134Z,7.40
2019-03-04T20:00:18.453Z,7.40
2019-03-04T20:02:48.279Z,7.40
2019-03-04T20:05:18.163Z,7.40
2019-03-04T20:07:47.129Z,7.30
2019-03-04T20:10:17.153Z,7.30
2019-03-04T20:12:46.711Z,7.20
2019-03-04T20:15:21.100Z,7.20
2019-03-04T20:17:50.073Z,7.20
2019-03-04T20:20:18.599Z,7.10
2019-03-04T20:22:47.837Z,7.20
2019-03-04T20:25:17.480Z,7.10
2019-03-04T20:27:46.046Z,7.10
2019-03-04T20:30:16.252Z,7.10
2019-03-04T20:32:45.987Z,7.10
2019-03-04T20:35:15.262Z,7.10
2019-03-04T20:37:49.725Z,7.10
2019-03-04T20:40:18.649Z,7.10
2019-03-04T20:42:47.519Z,7.00
2019-03-04T20:45:17.953Z,7.10
2019-03-04T20:47:46.753Z,7.10
2019-03-04T20:50:20.121Z,7.10
2019-03-04T20:52:48.769Z,7.10
2019-03-04T20:55:17.822Z,7.10
2019-03-04T20:57:46.419Z,7.10
2019-03-04T21:00:28.793Z,7.10
2019-03-04T21:02:57.444Z,7.10
2019-03-04T21:05:26.869Z,7.10
2019-03-04T21:07:56.085Z,7.10
2019-03-04T21:10:24.800Z,7.20
2019-03-04T21:12:55.279Z,7.20
2019-03-04T21:15:24.064Z,7.20
2019-03-04T21:17:52.785Z,7.30
2019-03-04T21:20:21.350Z,7.30
2019-03-04T21:22:49.955Z,7.30
2019-03-04T21:25:44.971Z,7.30
2019-03-04T21:28:25.461Z,7.30
2019-03-04T21:30:59.905Z,7.30
2019-03-04T21:33:43.595Z,7.30
2019-03-04T21:36:23.911Z,7.30
2019-03-04T21:38:55.653Z,7.40
2019-03-04T21:41:27.247Z,7.30
2019-03-04T21:44:07.781Z,7.40
2019-03-04T21:46:45.729Z,7.30
2019-03-04T21:49:14.495Z,7.20
2019-03-04T21:51:46.641Z,7.20
2019-03-04T21:54:15.177Z,7.20
2019-03-04T21:56:47.777Z,7.20
2019-03-04T21:59:16.435Z,7.10
2019-03-04T22:02:11.670Z,7.10
2019-03-04T22:04:40.406Z,7.10
2019-03-04T22:07:09.158Z,7.10
2019-03-04T22:09:38.457Z,7.10
2019-03-04T22:12:14.417Z,7.10
2019-03-04T22:14:43.196Z,7.20
2019-03-04T22:17:13.363Z,7.20
2019-03-04T22:19:41.828Z,7.20
2019-03-04T22:22:10.289Z,7.20
2019-03-04T22:24:38.689Z,7.20
2019-03-04T22:27:07.365Z,7.20
2019-03-04T22:29:36.309Z,7.20
2019-03-04T22:32:04.846Z,7.20
2019-03-04T22:34:33.333Z,7.20
2019-03-04T22:37:01.800Z,7.30
2019-03-04T22:39:30.209Z,7.30
2019-03-04T22:41:58.689Z,7.30
2019-03-04T22:44:27.364Z,7.30
2019-03-04T22:46:56.106Z,7.20
2019-03-04T22:49:24.488Z,7.30
2019-03-04T22:51:53.241Z,7.20
2019-03-04T22:54:21.679Z,7.20
2019-03-04T22:56:50.078Z,7.30
2019-03-04T22:59:18.790Z,7.30
2019-03-04T23:01:50.433Z,7.30
2019-03-04T23:04:19.553Z,7.30
2019-03-04T23:06:53.889Z,7.30
2019-03-04T23:09:25.772Z,7.30
2019-03-04T23:12:03.105Z,7.30
2019-03-04T23:14:31.559Z,7.20
2019-03-04T23:17:00.366Z,7.20
2019-03-04T23:19:31.149Z,7.20
2019-03-04T23:21:59.841Z,7.20
2019-03-04T23:24:28.502Z,7.30
2019-03-04T23:26:57.293Z,7.20
2019-03-04T23:29:25.991Z,7.30
2019-03-04T23:31:54.726Z,7.30
2019-03-04T23:34:23.161Z,7.30
2019-03-04T23:36:51.875Z,7.30
2019-03-04T23:39:20.567Z,7.30
2019-03-04T23:41:49.024Z,7.30
2019-03-04T23:44:17.444Z,7.30
2019-03-04T23:46:46.158Z,7.30
2019-03-04T23:49:15.451Z,7.30
2019-03-04T23:51:44.086Z,7.30
2019-03-04T23:54:12.579Z,7.30
2019-03-04T23:56:41.010Z,7.30
2019-03-04T23:59:09.459Z,7.30
